sensor_id;sensor_type;location;lat;lon;timestamp;pressure;altitude;pressure_sealevel;temperature;humidity
35507;BME280;36461;52.018;21.036;2023-04-19T00:00:13;100628.56;;;10.50;62.72
35507;BME280;36461;52.018;21.036;2023-04-19T00:03:01;100625.48;;;10.49;62.82
35507;BME280;36461;52.018;21.036;2023-04-19T00:05:30;100625.19;;;10.47;63.28
35507;BME280;36461;52.018;21.036;2023-04-19T00:07:58;100621.66;;;10.43;63.76
35507;BME280;36461;52.018;21.036;2023-04-19T00:10:26;100620.56;;;10.39;64.23
35507;BME280;36461;52.018;21.036;2023-04-19T00:12:54;100621.65;;;10.37;64.40
35507;BME280;36461;52.018;21.036;2023-04-19T00:15:22;100617.05;;;10.34;64.75
35507;BME280;36461;52.018;21.036;2023-04-19T00:17:50;100612.62;;;10.31;64.97
35507;BME280;36461;52.018;21.036;2023-04-19T00:20:20;100607.05;;;10.26;64.68
35507;BME280;36461;52.018;21.036;2023-04-19T00:22:48;100600.12;;;10.20;64.89
35507;BME280;36461;52.018;21.036;2023-04-19T00:25:16;100598.15;;;10.16;64.91
35507;BME280;36461;52.018;21.036;2023-04-19T00:27:44;100590.92;;;10.09;64.71
35507;BME280;36461;52.018;21.036;2023-04-19T00:30:13;100584.54;;;10.01;64.73
35507;BME280;36461;52.018;21.036;2023-04-19T00:32:41;100586.48;;;9.94;65.00
35507;BME280;36461;52.018;21.036;2023-04-19T00:35:09;100590.60;;;9.88;65.00
35507;BME280;36461;52.018;21.036;2023-04-19T00:37:37;100586.39;;;9.83;65.20
35507;BME280;36461;52.018;21.036;2023-04-19T00:40:06;100587.30;;;9.82;65.43
35507;BME280;36461;52.018;21.036;2023-04-19T00:42:36;100590.88;;;9.84;65.89
35507;BME280;36461;52.018;21.036;2023-04-19T00:45:05;100592.40;;;9.85;65.82
35507;BME280;36461;52.018;21.036;2023-04-19T00:47:34;100587.89;;;9.85;66.11
35507;BME280;36461;52.018;21.036;2023-04-19T00:50:03;100589.72;;;9.88;66.40
35507;BME280;36461;52.018;21.036;2023-04-19T00:52:32;100588.50;;;9.88;66.56
35507;BME280;36461;52.018;21.036;2023-04-19T00:55:01;100590.82;;;9.86;66.85
35507;BME280;36461;52.018;21.036;2023-04-19T00:57:30;100587.14;;;9.87;67.08
35507;BME280;36461;52.018;21.036;2023-04-19T00:59:58;100588.73;;;9.86;67.42
35507;BME280;36461;52.018;21.036;2023-04-19T01:02:26;100583.27;;;9.84;67.50
35507;BME280;36461;52.018;21.036;2023-04-19T01:04:55;100574.14;;;9.82;67.59
35507;BME280;36461;52.018;21.036;2023-04-19T01:07:24;100572.95;;;9.82;67.81
35507;BME280;36461;52.018;21.036;2023-04-19T01:09:52;100572.71;;;9.78;68.02
35507;BME280;36461;52.018;21.036;2023-04-19T01:12:21;100567.35;;;9.78;68.33
35507;BME280;36461;52.018;21.036;2023-04-19T01:14:49;100563.98;;;9.75;68.42
35507;BME280;36461;52.018;21.036;2023-04-19T01:17:18;100560.59;;;9.72;68.98
35507;BME280;36461;52.018;21.036;2023-04-19T01:19:47;100555.93;;;9.65;68.88
35507;BME280;36461;52.018;21.036;2023-04-19T01:22:18;100552.33;;;9.57;69.30
35507;BME280;36461;52.018;21.036;2023-04-19T01:24:46;100554.16;;;9.53;70.13
35507;BME280;36461;52.018;21.036;2023-04-19T01:27:14;100553.70;;;9.44;70.62
35507;BME280;36461;52.018;21.036;2023-04-19T01:29:44;100557.11;;;9.31;72.43
35507;BME280;36461;52.018;21.036;2023-04-19T01:32:12;100551.36;;;9.11;73.12
35507;BME280;36461;52.018;21.036;2023-04-19T01:34:40;100555.13;;;8.90;74.03
35507;BME280;36461;52.018;21.036;2023-04-19T01:37:09;100556.67;;;8.74;75.10
35507;BME280;36461;52.018;21.036;2023-04-19T01:39:37;100552.52;;;8.67;75.59
35507;BME280;36461;52.018;21.036;2023-04-19T01:42:07;100548.51;;;8.62;75.98
35507;BME280;36461;52.018;21.036;2023-04-19T01:44:36;100549.83;;;8.56;76.75
35507;BME280;36461;52.018;21.036;2023-04-19T01:47:04;100549.58;;;8.51;77.31
35507;BME280;36461;52.018;21.036;2023-04-19T01:49:32;100546.41;;;8.45;77.85
35507;BME280;36461;52.018;21.036;2023-04-19T01:52:00;100546.43;;;8.45;78.23
35507;BME280;36461;52.018;21.036;2023-04-19T01:54:28;100544.35;;;8.45;78.63
35507;BME280;36461;52.018;21.036;2023-04-19T01:56:56;100544.16;;;8.46;78.92
35507;BME280;36461;52.018;21.036;2023-04-19T01:59:25;100540.91;;;8.45;79.00
35507;BME280;36461;52.018;21.036;2023-04-19T02:01:53;100544.54;;;8.44;79.34
35507;BME280;36461;52.018;21.036;2023-04-19T02:04:21;100540.73;;;8.45;79.62
35507;BME280;36461;52.018;21.036;2023-04-19T02:06:49;100541.27;;;8.43;79.50
35507;BME280;36461;52.018;21.036;2023-04-19T02:09:17;100536.60;;;8.44;79.89
35507;BME280;36461;52.018;21.036;2023-04-19T02:11:45;100538.48;;;8.47;80.30
35507;BME280;36461;52.018;21.036;2023-04-19T02:14:13;100541.39;;;8.47;80.51
35507;BME280;36461;52.018;21.036;2023-04-19T02:16:42;100541.42;;;8.45;80.88
35507;BME280;36461;52.018;21.036;2023-04-19T02:19:10;100535.31;;;8.39;80.77
35507;BME280;36461;52.018;21.036;2023-04-19T02:21:38;100536.74;;;8.37;81.10
35507;BME280;36461;52.018;21.036;2023-04-19T02:24:06;100533.52;;;8.34;81.26
35507;BME280;36461;52.018;21.036;2023-04-19T02:26:34;100535.52;;;8.29;81.53
35507;BME280;36461;52.018;21.036;2023-04-19T02:29:05;100540.05;;;8.27;81.60
35507;BME280;36461;52.018;21.036;2023-04-19T02:31:35;100542.14;;;8.26;81.74
35507;BME280;36461;52.018;21.036;2023-04-19T02:34:03;100541.11;;;8.26;81.98
35507;BME280;36461;52.018;21.036;2023-04-19T02:36:33;100540.61;;;8.25;82.30
35507;BME280;36461;52.018;21.036;2023-04-19T02:39:02;100538.34;;;8.26;82.62
35507;BME280;36461;52.018;21.036;2023-04-19T02:41:32;100531.91;;;8.28;83.43
35507;BME280;36461;52.018;21.036;2023-04-19T02:44:01;100532.43;;;8.29;83.44
35507;BME280;36461;52.018;21.036;2023-04-19T02:46:29;100533.21;;;8.24;83.34
35507;BME280;36461;52.018;21.036;2023-04-19T02:48:59;100536.63;;;8.08;88.71
35507;BME280;36461;52.018;21.036;2023-04-19T02:51:28;100533.44;;;8.03;90.99
35507;BME280;36461;52.018;21.036;2023-04-19T02:53:56;100532.30;;;8.00;92.00
35507;BME280;36461;52.018;21.036;2023-04-19T02:56:25;100529.91;;;7.89;92.40
35507;BME280;36461;52.018;21.036;2023-04-19T02:58:53;100523.55;;;7.70;93.20
35507;BME280;36461;52.018;21.036;2023-04-19T03:01:21;100524.63;;;7.57;94.01
35507;BME280;36461;52.018;21.036;2023-04-19T03:03:50;100523.27;;;7.46;94.70
35507;BME280;36461;52.018;21.036;2023-04-19T03:06:19;100516.06;;;7.35;95.49
35507;BME280;36461;52.018;21.036;2023-04-19T03:08:47;100514.59;;;7.30;95.27
35507;BME280;36461;52.018;21.036;2023-04-19T03:11:16;100512.41;;;7.26;95.44
35507;BME280;36461;52.018;21.036;2023-04-19T03:13:46;100511.17;;;7.29;95.90
35507;BME280;36461;52.018;21.036;2023-04-19T03:16:14;100510.76;;;7.32;96.08
35507;BME280;36461;52.018;21.036;2023-04-19T03:18:43;100504.19;;;7.35;96.65
35507;BME280;36461;52.018;21.036;2023-04-19T03:21:14;100500.61;;;7.32;97.68
35507;BME280;36461;52.018;21.036;2023-04-19T03:23:48;100496.52;;;7.31;98.24
35507;BME280;36461;52.018;21.036;2023-04-19T03:26:17;100496.29;;;7.33;98.14
35507;BME280;36461;52.018;21.036;2023-04-19T03:28:47;100496.98;;;7.33;98.34
35507;BME280;36461;52.018;21.036;2023-04-19T03:31:41;100490.23;;;7.35;98.59
35507;BME280;36461;52.018;21.036;2023-04-19T03:34:11;100487.50;;;7.33;98.66
35507;BME280;36461;52.018;21.036;2023-04-19T03:36:42;100484.33;;;7.28;99.20
35507;BME280;36461;52.018;21.036;2023-04-19T03:39:10;100481.27;;;7.26;99.66
35507;BME280;36461;52.018;21.036;2023-04-19T03:41:40;100475.71;;;7.29;99.82
35507;BME280;36461;52.018;21.036;2023-04-19T03:44:19;100473.79;;;7.31;99.81
35507;BME280;36461;52.018;21.036;2023-04-19T03:46:47;100476.48;;;7.23;99.58
35507;BME280;36461;52.018;21.036;2023-04-19T03:49:19;100468.36;;;7.25;100.00
35507;BME280;36461;52.018;21.036;2023-04-19T03:51:51;100464.36;;;7.28;100.00
35507;BME280;36461;52.018;21.036;2023-04-19T03:54:19;100465.40;;;7.28;100.00
35507;BME280;36461;52.018;21.036;2023-04-19T03:56:47;100463.77;;;7.22;100.00
35507;BME280;36461;52.018;21.036;2023-04-19T03:59:15;100461.70;;;7.22;100.00
35507;BME280;36461;52.018;21.036;2023-04-19T04:01:44;100458.13;;;7.20;100.00
35507;BME280;36461;52.018;21.036;2023-04-19T04:04:13;100461.30;;;7.16;100.00
35507;BME280;36461;52.018;21.036;2023-04-19T04:06:41;100462.85;;;7.15;100.00
35507;BME280;36461;52.018;21.036;2023-04-19T04:09:09;100462.89;;;7.13;100.00
35507;BME280;36461;52.018;21.036;2023-04-19T04:11:37;100463.39;;;7.14;100.00
35507;BME280;36461;52.018;21.036;2023-04-19T04:14:06;100461.45;;;7.18;100.00
35507;BME280;36461;52.018;21.036;2023-04-19T04:16:36;100458.23;;;7.14;100.00
35507;BME280;36461;52.018;21.036;2023-04-19T04:19:05;100461.20;;;7.12;100.00
35507;BME280;36461;52.018;21.036;2023-04-19T04:21:34;100461.98;;;7.06;100.00
35507;BME280;36461;52.018;21.036;2023-04-19T04:24:05;100465.45;;;7.03;100.00
35507;BME280;36461;52.018;21.036;2023-04-19T04:26:44;100462.40;;;7.01;100.00
35507;BME280;36461;52.018;21.036;2023-04-19T04:29:28;100459.50;;;7.00;100.00
35507;BME280;36461;52.018;21.036;2023-04-19T04:31:57;100458.87;;;6.96;100.00
35507;BME280;36461;52.018;21.036;2023-04-19T04:34:28;100455.80;;;6.94;100.00
35507;BME280;36461;52.018;21.036;2023-04-19T04:37:03;100452.74;;;6.91;100.00
35507;BME280;36461;52.018;21.036;2023-04-19T04:39:32;100451.20;;;6.91;100.00
35507;BME280;36461;52.018;21.036;2023-04-19T04:42:06;100448.98;;;6.90;100.00
35507;BME280;36461;52.018;21.036;2023-04-19T04:44:37;100445.23;;;6.87;100.00
35507;BME280;36461;52.018;21.036;2023-04-19T04:47:06;100447.10;;;6.89;100.00
35507;BME280;36461;52.018;21.036;2023-04-19T04:49:38;100445.32;;;6.93;100.00
35507;BME280;36461;52.018;21.036;2023-04-19T04:52:07;100440.52;;;6.92;100.00
35507;BME280;36461;52.018;21.036;2023-04-19T04:54:42;100439.44;;;6.95;100.00
35507;BME280;36461;52.018;21.036;2023-04-19T04:57:19;100433.79;;;6.94;100.00
35507;BME280;36461;52.018;21.036;2023-04-19T04:59:47;100434.75;;;6.97;100.00
35507;BME280;36461;52.018;21.036;2023-04-19T05:02:16;100434.23;;;6.99;100.00
35507;BME280;36461;52.018;21.036;2023-04-19T05:04:45;100432.97;;;7.01;100.00
35507;BME280;36461;52.018;21.036;2023-04-19T05:07:13;100426.69;;;7.06;100.00
35507;BME280;36461;52.018;21.036;2023-04-19T05:09:42;100421.68;;;7.07;100.00
35507;BME280;36461;52.018;21.036;2023-04-19T05:12:11;100422.08;;;7.05;100.00
35507;BME280;36461;52.018;21.036;2023-04-19T05:14:40;100422.54;;;7.08;100.00
35507;BME280;36461;52.018;21.036;2023-04-19T05:17:08;100419.34;;;7.05;100.00
35507;BME280;36461;52.018;21.036;2023-04-19T05:19:36;100417.77;;;7.04;100.00
35507;BME280;36461;52.018;21.036;2023-04-19T05:22:06;100419.42;;;7.09;100.00
35507;BME280;36461;52.018;21.036;2023-04-19T05:24:35;100416.64;;;7.11;100.00
35507;BME280;36461;52.018;21.036;2023-04-19T05:27:03;100416.27;;;7.12;100.00
35507;BME280;36461;52.018;21.036;2023-04-19T05:29:31;100415.52;;;7.16;100.00
35507;BME280;36461;52.018;21.036;2023-04-19T05:31:59;100415.20;;;7.14;100.00
35507;BME280;36461;52.018;21.036;2023-04-19T05:34:30;100412.52;;;7.11;100.00
35507;BME280;36461;52.018;21.036;2023-04-19T05:36:59;100416.64;;;7.10;100.00
35507;BME280;36461;52.018;21.036;2023-04-19T05:39:27;100413.06;;;7.08;100.00
35507;BME280;36461;52.018;21.036;2023-04-19T05:41:55;100414.24;;;7.10;100.00
35507;BME280;36461;52.018;21.036;2023-04-19T05:44:23;100414.75;;;7.10;100.00
35507;BME280;36461;52.018;21.036;2023-04-19T05:46:51;100412.91;;;7.08;100.00
35507;BME280;36461;52.018;21.036;2023-04-19T05:49:30;100413.72;;;7.10;100.00
35507;BME280;36461;52.018;21.036;2023-04-19T05:52:08;100414.33;;;7.14;100.00
35507;BME280;36461;52.018;21.036;2023-04-19T05:54:43;100412.17;;;7.20;100.00
35507;BME280;36461;52.018;21.036;2023-04-19T05:57:11;100414.20;;;7.21;100.00
35507;BME280;36461;52.018;21.036;2023-04-19T05:59:40;100416.42;;;7.23;100.00
35507;BME280;36461;52.018;21.036;2023-04-19T06:02:08;100416.13;;;7.30;100.00
35507;BME280;36461;52.018;21.036;2023-04-19T06:04:37;100417.31;;;7.30;100.00
35507;BME280;36461;52.018;21.036;2023-04-19T06:07:06;100417.31;;;7.31;100.00
35507;BME280;36461;52.018;21.036;2023-04-19T06:09:53;100414.05;;;7.30;100.00
35507;BME280;36461;52.018;21.036;2023-04-19T06:12:21;100414.52;;;7.32;100.00
35507;BME280;36461;52.018;21.036;2023-04-19T06:14:49;100413.21;;;7.38;100.00
35507;BME280;36461;52.018;21.036;2023-04-19T06:17:18;100413.01;;;7.41;100.00
35507;BME280;36461;52.018;21.036;2023-04-19T06:19:51;100415.82;;;7.46;100.00
35507;BME280;36461;52.018;21.036;2023-04-19T06:22:20;100412.63;;;7.51;100.00
35507;BME280;36461;52.018;21.036;2023-04-19T06:24:48;100409.46;;;7.55;100.00
35507;BME280;36461;52.018;21.036;2023-04-19T06:27:16;100410.11;;;7.57;100.00
35507;BME280;36461;52.018;21.036;2023-04-19T06:29:44;100409.50;;;7.62;100.00
35507;BME280;36461;52.018;21.036;2023-04-19T06:32:12;100410.87;;;7.62;100.00
35507;BME280;36461;52.018;21.036;2023-04-19T06:34:40;100411.66;;;7.65;100.00
35507;BME280;36461;52.018;21.036;2023-04-19T06:37:08;100408.69;;;7.69;100.00
35507;BME280;36461;52.018;21.036;2023-04-19T06:39:36;100411.63;;;7.76;100.00
35507;BME280;36461;52.018;21.036;2023-04-19T06:42:04;100408.86;;;7.85;100.00
35507;BME280;36461;52.018;21.036;2023-04-19T06:44:33;100407.57;;;7.98;100.00
35507;BME280;36461;52.018;21.036;2023-04-19T06:47:01;100403.30;;;8.04;100.00
35507;BME280;36461;52.018;21.036;2023-04-19T06:49:29;100404.54;;;8.11;100.00
35507;BME280;36461;52.018;21.036;2023-04-19T06:51:57;100404.79;;;8.15;100.00
35507;BME280;36461;52.018;21.036;2023-04-19T06:54:25;100404.59;;;8.24;100.00
35507;BME280;36461;52.018;21.036;2023-04-19T06:56:55;100403.30;;;8.28;100.00
35507;BME280;36461;52.018;21.036;2023-04-19T06:59:23;100406.83;;;8.32;100.00
35507;BME280;36461;52.018;21.036;2023-04-19T07:01:55;100409.96;;;8.38;100.00
35507;BME280;36461;52.018;21.036;2023-04-19T07:04:25;100410.12;;;8.39;100.00
35507;BME280;36461;52.018;21.036;2023-04-19T07:06:53;100412.30;;;8.34;100.00
35507;BME280;36461;52.018;21.036;2023-04-19T07:09:21;100411.49;;;8.32;100.00
35507;BME280;36461;52.018;21.036;2023-04-19T07:11:49;100408.02;;;8.33;100.00
35507;BME280;36461;52.018;21.036;2023-04-19T07:14:18;100408.35;;;8.33;100.00
35507;BME280;36461;52.018;21.036;2023-04-19T07:16:46;100408.86;;;8.33;100.00
35507;BME280;36461;52.018;21.036;2023-04-19T07:19:14;100408.02;;;8.33;100.00
35507;BME280;36461;52.018;21.036;2023-04-19T07:21:42;100405.47;;;8.31;100.00
35507;BME280;36461;52.018;21.036;2023-04-19T07:24:10;100404.73;;;8.33;100.00
35507;BME280;36461;52.018;21.036;2023-04-19T07:26:38;100405.09;;;8.33;100.00
35507;BME280;36461;52.018;21.036;2023-04-19T07:29:06;100405.15;;;8.30;100.00
35507;BME280;36461;52.018;21.036;2023-04-19T07:31:35;100402.16;;;8.32;100.00
35507;BME280;36461;52.018;21.036;2023-04-19T07:34:03;100404.86;;;8.35;100.00
35507;BME280;36461;52.018;21.036;2023-04-19T07:36:31;100407.55;;;8.37;100.00
35507;BME280;36461;52.018;21.036;2023-04-19T07:39:01;100405.91;;;8.42;100.00
35507;BME280;36461;52.018;21.036;2023-04-19T07:41:31;100403.94;;;8.47;100.00
35507;BME280;36461;52.018;21.036;2023-04-19T07:43:59;100402.02;;;8.48;100.00
35507;BME280;36461;52.018;21.036;2023-04-19T07:46:26;100399.70;;;8.41;100.00
35507;BME280;36461;52.018;21.036;2023-04-19T07:48:54;100401.91;;;8.44;100.00
35507;BME280;36461;52.018;21.036;2023-04-19T07:51:22;100402.95;;;8.44;100.00
35507;BME280;36461;52.018;21.036;2023-04-19T07:53:51;100401.20;;;8.53;100.00
35507;BME280;36461;52.018;21.036;2023-04-19T07:56:21;100405.89;;;8.66;100.00
35507;BME280;36461;52.018;21.036;2023-04-19T07:58:49;100404.33;;;8.81;100.00
35507;BME280;36461;52.018;21.036;2023-04-19T08:01:34;100405.72;;;8.95;100.00
35507;BME280;36461;52.018;21.036;2023-04-19T08:04:02;100402.48;;;9.07;100.00
35507;BME280;36461;52.018;21.036;2023-04-19T08:06:31;100401.79;;;9.13;100.00
35507;BME280;36461;52.018;21.036;2023-04-19T08:08:59;100400.64;;;9.18;100.00
35507;BME280;36461;52.018;21.036;2023-04-19T08:11:27;100399.41;;;9.25;100.00
35507;BME280;36461;52.018;21.036;2023-04-19T08:13:55;100401.70;;;9.30;100.00
35507;BME280;36461;52.018;21.036;2023-04-19T08:16:43;100396.41;;;9.41;100.00
35507;BME280;36461;52.018;21.036;2023-04-19T08:19:14;100397.38;;;9.49;100.00
35507;BME280;36461;52.018;21.036;2023-04-19T08:21:42;100396.73;;;9.54;100.00
35507;BME280;36461;52.018;21.036;2023-04-19T08:24:10;100402.27;;;9.61;100.00
35507;BME280;36461;52.018;21.036;2023-04-19T08:26:38;100398.86;;;9.65;100.00
35507;BME280;36461;52.018;21.036;2023-04-19T08:29:06;100401.27;;;9.66;100.00
35507;BME280;36461;52.018;21.036;2023-04-19T08:31:34;100404.20;;;9.66;100.00
35507;BME280;36461;52.018;21.036;2023-04-19T08:34:02;100408.34;;;9.65;100.00
35507;BME280;36461;52.018;21.036;2023-04-19T08:36:30;100409.33;;;9.67;100.00
35507;BME280;36461;52.018;21.036;2023-04-19T08:39:10;100408.26;;;9.75;100.00
35507;BME280;36461;52.018;21.036;2023-04-19T08:42:08;100408.67;;;10.09;100.00
35507;BME280;36461;52.018;21.036;2023-04-19T08:44:55;100411.02;;;10.40;100.00
35507;BME280;36461;52.018;21.036;2023-04-19T08:47:45;100415.02;;;10.62;100.00
35507;BME280;36461;52.018;21.036;2023-04-19T08:50:26;100415.96;;;10.76;100.00
35507;BME280;36461;52.018;21.036;2023-04-19T08:53:07;100419.77;;;10.81;100.00
35507;BME280;36461;52.018;21.036;2023-04-19T08:55:52;100418.05;;;10.92;100.00
35507;BME280;36461;52.018;21.036;2023-04-19T08:58:44;100413.52;;;11.02;100.00
35507;BME280;36461;52.018;21.036;2023-04-19T09:01:32;100414.77;;;11.12;100.00
35507;BME280;36461;52.018;21.036;2023-04-19T09:04:04;100412.46;;;11.38;100.00
35507;BME280;36461;52.018;21.036;2023-04-19T09:06:48;100408.48;;;11.49;99.40
35507;BME280;36461;52.018;21.036;2023-04-19T09:09:21;100410.05;;;11.53;98.96
35507;BME280;36461;52.018;21.036;2023-04-19T09:11:52;100411.80;;;11.52;98.22
35507;BME280;36461;52.018;21.036;2023-04-19T09:14:21;100406.69;;;11.79;98.46
35507;BME280;36461;52.018;21.036;2023-04-19T09:16:50;100401.80;;;12.09;97.71
35507;BME280;36461;52.018;21.036;2023-04-19T09:19:19;100409.86;;;12.20;96.35
35507;BME280;36461;52.018;21.036;2023-04-19T09:21:52;100410.02;;;12.16;94.43
35507;BME280;36461;52.018;21.036;2023-04-19T09:24:37;100403.94;;;12.21;94.38
35507;BME280;36461;52.018;21.036;2023-04-19T09:27:09;100406.91;;;12.60;94.66
35507;BME280;36461;52.018;21.036;2023-04-19T09:29:40;100405.86;;;12.73;92.96
35507;BME280;36461;52.018;21.036;2023-04-19T09:32:08;100404.06;;;12.92;93.05
35507;BME280;36461;52.018;21.036;2023-04-19T09:34:50;100407.96;;;12.98;91.62
35507;BME280;36461;52.018;21.036;2023-04-19T09:37:19;100413.21;;;12.98;91.84
35507;BME280;36461;52.018;21.036;2023-04-19T09:39:54;100408.64;;;13.07;91.75
35507;BME280;36461;52.018;21.036;2023-04-19T09:42:22;100410.41;;;13.22;91.13
35507;BME280;36461;52.018;21.036;2023-04-19T09:45:11;100414.61;;;13.39;90.33
35507;BME280;36461;52.018;21.036;2023-04-19T09:48:02;100415.63;;;13.40;88.85
35507;BME280;36461;52.018;21.036;2023-04-19T09:50:31;100416.49;;;13.39;89.15
35507;BME280;36461;52.018;21.036;2023-04-19T09:53:09;100414.13;;;13.42;88.60
35507;BME280;36461;52.018;21.036;2023-04-19T09:55:37;100414.52;;;13.28;87.23
35507;BME280;36461;52.018;21.036;2023-04-19T09:58:27;100411.20;;;13.08;87.06
35507;BME280;36461;52.018;21.036;2023-04-19T10:01:05;100412.58;;;13.04;86.68
35507;BME280;36461;52.018;21.036;2023-04-19T10:03:43;100414.86;;;12.99;86.39
35507;BME280;36461;52.018;21.036;2023-04-19T10:06:17;100411.36;;;13.00;86.28
35507;BME280;36461;52.018;21.036;2023-04-19T10:08:49;100413.86;;;13.11;86.55
35507;BME280;36461;52.018;21.036;2023-04-19T10:11:20;100415.22;;;13.28;86.27
35507;BME280;36461;52.018;21.036;2023-04-19T10:14:18;100413.96;;;13.33;85.45
35507;BME280;36461;52.018;21.036;2023-04-19T10:16:49;100414.80;;;13.30;84.94
35507;BME280;36461;52.018;21.036;2023-04-19T10:19:19;100418.17;;;13.12;84.45
35507;BME280;36461;52.018;21.036;2023-04-19T10:21:49;100421.91;;;12.85;83.52
35507;BME280;36461;52.018;21.036;2023-04-19T10:24:18;100426.44;;;12.63;84.36
35507;BME280;36461;52.018;21.036;2023-04-19T10:27:11;100426.20;;;12.51;84.75
35507;BME280;36461;52.018;21.036;2023-04-19T10:30:02;100427.60;;;12.42;84.54
35507;BME280;36461;52.018;21.036;2023-04-19T10:32:39;100428.87;;;12.40;85.11
35507;BME280;36461;52.018;21.036;2023-04-19T10:38:10;100432.77;;;12.56;84.69
35507;BME280;36461;52.018;21.036;2023-04-19T10:40:57;100432.61;;;12.69;85.01
35507;BME280;36461;52.018;21.036;2023-04-19T10:43:32;100435.89;;;12.90;84.83
35507;BME280;36461;52.018;21.036;2023-04-19T10:46:54;100435.31;;;13.01;84.41
35507;BME280;36461;52.018;21.036;2023-04-19T10:48:59;100435.05;;;13.10;84.72
35507;BME280;36461;52.018;21.036;2023-04-19T10:51:32;100432.45;;;13.23;83.89
35507;BME280;36461;52.018;21.036;2023-04-19T10:54:02;100433.21;;;13.26;82.74
35507;BME280;36461;52.018;21.036;2023-04-19T11:05:20;100433.50;;;13.64;82.11
35507;BME280;36461;52.018;21.036;2023-04-19T11:07:23;100431.00;;;13.78;81.39
35507;BME280;36461;52.018;21.036;2023-04-19T11:09:51;100430.64;;;13.90;81.12
35507;BME280;36461;52.018;21.036;2023-04-19T11:12:20;100431.27;;;14.29;81.43
35507;BME280;36461;52.018;21.036;2023-04-19T11:14:52;100430.41;;;14.73;80.54
35507;BME280;36461;52.018;21.036;2023-04-19T11:17:26;100428.95;;;15.00;78.82
35507;BME280;36461;52.018;21.036;2023-04-19T11:22:35;100427.88;;;15.21;77.36
35507;BME280;36461;52.018;21.036;2023-04-19T11:27:42;100432.98;;;14.85;76.54
35507;BME280;36461;52.018;21.036;2023-04-19T11:30:13;100433.45;;;14.72;76.57
35507;BME280;36461;52.018;21.036;2023-04-19T11:32:44;100432.14;;;14.62;76.47
35507;BME280;36461;52.018;21.036;2023-04-19T11:35:14;100428.88;;;14.50;76.09
35507;BME280;36461;52.018;21.036;2023-04-19T11:37:44;100421.99;;;14.49;75.62
35507;BME280;36461;52.018;21.036;2023-04-19T11:40:17;100420.78;;;14.59;75.92
35507;BME280;36461;52.018;21.036;2023-04-19T11:42:47;100418.34;;;14.74;75.89
35507;BME280;36461;52.018;21.036;2023-04-19T11:45:38;100421.02;;;14.87;75.60
35507;BME280;36461;52.018;21.036;2023-04-19T11:48:13;100417.67;;;14.95;75.02
35507;BME280;36461;52.018;21.036;2023-04-19T11:50:43;100419.16;;;15.07;74.45
35507;BME280;36461;52.018;21.036;2023-04-19T11:53:20;100420.88;;;15.12;73.85
35507;BME280;36461;52.018;21.036;2023-04-19T11:55:50;100418.67;;;15.20;73.80
35507;BME280;36461;52.018;21.036;2023-04-19T11:58:27;100421.16;;;15.36;73.63
35507;BME280;36461;52.018;21.036;2023-04-19T12:01:02;100423.98;;;15.46;73.29
35507;BME280;36461;52.018;21.036;2023-04-19T12:03:32;100425.45;;;15.45;71.81
35507;BME280;36461;52.018;21.036;2023-04-19T12:06:01;100421.11;;;15.48;72.37
35507;BME280;36461;52.018;21.036;2023-04-19T12:08:37;100424.42;;;15.58;72.05
35507;BME280;36461;52.018;21.036;2023-04-19T12:11:06;100429.45;;;15.45;71.81
35507;BME280;36461;52.018;21.036;2023-04-19T12:13:34;100428.15;;;15.36;71.79
35507;BME280;36461;52.018;21.036;2023-04-19T12:16:03;100429.36;;;15.19;71.66
35507;BME280;36461;52.018;21.036;2023-04-19T12:18:50;100436.99;;;15.03;72.11
35507;BME280;36461;52.018;21.036;2023-04-19T12:21:26;100440.51;;;14.99;72.59
35507;BME280;36461;52.018;21.036;2023-04-19T12:23:55;100443.00;;;14.98;72.59
35507;BME280;36461;52.018;21.036;2023-04-19T12:26:25;100442.11;;;14.91;72.20
35507;BME280;36461;52.018;21.036;2023-04-19T12:28:56;100441.66;;;14.75;72.63
35507;BME280;36461;52.018;21.036;2023-04-19T12:31:24;100441.90;;;14.70;73.04
35507;BME280;36461;52.018;21.036;2023-04-19T12:33:53;100445.86;;;14.67;73.42
35507;BME280;36461;52.018;21.036;2023-04-19T12:36:21;100443.59;;;14.56;73.08
35507;BME280;36461;52.018;21.036;2023-04-19T12:38:49;100445.48;;;14.41;73.12
35507;BME280;36461;52.018;21.036;2023-04-19T12:41:17;100444.08;;;14.23;73.29
35507;BME280;36461;52.018;21.036;2023-04-19T12:43:44;100443.71;;;14.08;73.74
35507;BME280;36461;52.018;21.036;2023-04-19T12:46:12;100444.34;;;13.91;73.88
35507;BME280;36461;52.018;21.036;2023-04-19T12:48:40;100446.36;;;13.84;75.04
35507;BME280;36461;52.018;21.036;2023-04-19T12:51:08;100446.40;;;13.83;75.36
35507;BME280;36461;52.018;21.036;2023-04-19T12:53:36;100448.70;;;13.75;75.25
35507;BME280;36461;52.018;21.036;2023-04-19T12:56:04;100448.05;;;13.66;75.20
35507;BME280;36461;52.018;21.036;2023-04-19T12:58:34;100446.05;;;13.56;75.19
35507;BME280;36461;52.018;21.036;2023-04-19T13:01:02;100443.33;;;13.46;75.24
35507;BME280;36461;52.018;21.036;2023-04-19T13:03:30;100440.88;;;13.39;75.77
35507;BME280;36461;52.018;21.036;2023-04-19T13:06:00;100443.56;;;13.32;76.03
35507;BME280;36461;52.018;21.036;2023-04-19T13:08:28;100442.57;;;13.35;76.60
35507;BME280;36461;52.018;21.036;2023-04-19T13:11:13;100439.06;;;13.48;76.62
35507;BME280;36461;52.018;21.036;2023-04-19T13:13:42;100436.50;;;13.71;77.03
35507;BME280;36461;52.018;21.036;2023-04-19T13:16:09;100432.34;;;13.94;76.73
35507;BME280;36461;52.018;21.036;2023-04-19T13:18:38;100428.24;;;14.08;76.03